createdAt,value
2019-01-10T00:00:49.361Z,1.20
2019-01-10T00:03:19.395Z,1.47
2019-01-10T00:05:49.058Z,1.50
2019-01-10T00:08:19.071Z,1.17
2019-01-10T00:10:48.549Z,1.27
2019-01-10T00:13:18.068Z,1.45
2019-01-10T00:15:47.652Z,1.45
2019-01-10T00:18:17.591Z,1.40
2019-01-10T00:20:47.546Z,1.55
2019-01-10T00:23:17.021Z,1.45
2019-01-10T00:25:46.535Z,1.30
2019-01-10T00:28:16.065Z,1.98
2019-01-10T00:30:45.553Z,1.15
2019-01-10T00:33:15.061Z,1.15
2019-01-10T00:35:44.611Z,1.40
2019-01-10T00:38:14.173Z,1.15
2019-01-10T00:40:43.819Z,1.10
2019-01-10T00:43:13.701Z,1.20
2019-01-10T00:45:43.347Z,1.02
2019-01-10T00:48:12.833Z,1.25
2019-01-10T00:50:42.351Z,1.20
2019-01-10T00:53:11.829Z,1.00
2019-01-10T00:55:41.706Z,1.40
2019-01-10T00:58:11.864Z,1.20
2019-01-10T01:00:41.366Z,1.85
2019-01-10T01:03:10.821Z,1.20
2019-01-10T01:05:40.881Z,1.30
2019-01-10T01:08:10.351Z,0.80
2019-01-10T01:10:39.902Z,1.35
2019-01-10T01:13:09.427Z,1.42
2019-01-10T01:15:38.977Z,1.92
2019-01-10T01:18:08.575Z,1.37
2019-01-10T01:20:38.198Z,1.87
2019-01-10T01:23:07.716Z,2.02
2019-01-10T01:25:37.291Z,1.85
2019-01-10T01:28:07.261Z,2.00
2019-01-10T01:30:36.767Z,2.15
2019-01-10T01:33:06.279Z,2.00
2019-01-10T01:35:35.795Z,2.15
2019-01-10T01:38:05.237Z,1.90
2019-01-10T01:40:34.802Z,1.60
2019-01-10T01:43:07.491Z,1.57
2019-01-10T01:45:35.755Z,1.80
2019-01-10T01:48:05.407Z,1.75
2019-01-10T01:50:34.983Z,1.98
2019-01-10T01:53:04.469Z,1.67
2019-01-10T01:55:34.359Z,1.50
2019-01-10T01:58:03.883Z,1.35
2019-01-10T02:00:33.416Z,1.42
2019-01-10T02:03:02.966Z,1.40
2019-01-10T02:05:32.484Z,1.00
2019-01-10T02:08:01.963Z,1.02
2019-01-10T02:10:31.439Z,1.00
2019-01-10T02:13:01.145Z,1.25
2019-01-10T02:15:30.653Z,1.07
2019-01-10T02:18:00.143Z,0.90
2019-01-10T02:20:29.623Z,1.07
2019-01-10T02:22:59.141Z,1.12
2019-01-10T02:25:28.623Z,1.10
2019-01-10T02:27:58.127Z,1.10
2019-01-10T02:30:27.665Z,1.60
2019-01-10T02:32:57.150Z,1.35
2019-01-10T02:35:27.022Z,0.98
2019-01-10T02:37:56.506Z,0.70
2019-01-10T02:40:25.191Z,0.82
2019-01-10T02:42:54.724Z,0.80
2019-01-10T02:45:24.217Z,0.75
2019-01-10T02:47:53.701Z,1.22
2019-01-10T02:50:24.119Z,0.95
2019-01-10T02:52:53.753Z,0.70
2019-01-10T02:55:23.337Z,1.20
2019-01-10T02:57:52.937Z,1.10
2019-01-10T03:00:25.011Z,1.05
2019-01-10T03:02:54.854Z,0.90
2019-01-10T03:05:24.751Z,0.90
2019-01-10T03:07:54.335Z,0.95
2019-01-10T03:10:25.815Z,0.80
2019-01-10T03:12:55.747Z,0.75
2019-01-10T03:15:26.124Z,0.90
2019-01-10T03:17:55.600Z,0.70
2019-01-10T03:20:25.206Z,0.95
2019-01-10T03:22:55.287Z,1.17
2019-01-10T03:25:24.819Z,0.90
2019-01-10T03:27:54.355Z,0.98
2019-01-10T03:30:23.865Z,1.12
2019-01-10T03:32:53.375Z,1.32
2019-01-10T03:35:23.520Z,0.80
2019-01-10T03:37:52.991Z,1.00
2019-01-10T03:40:22.846Z,1.27
2019-01-10T03:42:52.336Z,1.20
2019-01-10T03:45:22.303Z,1.27
2019-01-10T03:47:51.775Z,1.10
2019-01-10T03:50:21.366Z,1.37
2019-01-10T03:52:50.878Z,0.68
2019-01-10T03:55:20.755Z,0.90
2019-01-10T03:57:50.773Z,1.05
2019-01-10T04:00:22.966Z,1.30
2019-01-10T04:02:52.543Z,0.98
2019-01-10T04:05:22.178Z,1.40
2019-01-10T04:07:52.365Z,1.10
2019-01-10T04:10:21.890Z,1.20
2019-01-10T04:12:52.890Z,1.45
2019-01-10T04:15:22.374Z,1.50
2019-01-10T04:17:51.869Z,1.00
2019-01-10T04:20:21.480Z,1.32
2019-01-10T04:22:51.015Z,1.17
2019-01-10T04:25:20.531Z,1.00
2019-01-10T04:27:50.054Z,1.30
2019-01-10T04:30:20.755Z,1.00
2019-01-10T04:32:50.295Z,1.87
2019-01-10T04:35:20.246Z,1.25
2019-01-10T04:37:49.782Z,1.10
2019-01-10T04:40:20.389Z,1.25
2019-01-10T04:42:50.064Z,0.88
2019-01-10T04:45:20.045Z,1.05
2019-01-10T04:47:49.539Z,1.30
2019-01-10T04:50:19.226Z,1.20
2019-01-10T04:52:48.697Z,1.80
2019-01-10T04:55:37.652Z,1.10
2019-01-10T04:58:07.290Z,1.50
2019-01-10T05:00:36.860Z,1.10
2019-01-10T05:03:06.315Z,1.30
2019-01-10T05:05:35.899Z,1.00
2019-01-10T05:08:05.425Z,1.62
2019-01-10T05:10:35.018Z,1.10
2019-01-10T05:13:04.524Z,1.20
2019-01-10T05:15:33.999Z,1.82
2019-01-10T05:18:03.801Z,1.40
2019-01-10T05:20:33.280Z,1.35
2019-01-10T05:23:03.228Z,1.40
2019-01-10T05:25:32.792Z,1.10
2019-01-10T05:28:02.272Z,1.32
2019-01-10T05:30:31.746Z,1.35
2019-01-10T05:33:01.723Z,1.30
2019-01-10T05:35:31.240Z,1.90
2019-01-10T05:38:00.716Z,1.85
2019-01-10T05:40:30.590Z,1.45
2019-01-10T05:43:00.095Z,1.65
2019-01-10T05:45:29.551Z,1.57
2019-01-10T05:47:59.068Z,1.70
2019-01-10T05:50:28.537Z,1.80
2019-01-10T05:52:58.088Z,2.30
2019-01-10T05:55:27.649Z,1.90
2019-01-10T05:57:57.221Z,1.40
2019-01-10T06:00:27.455Z,1.80
2019-01-10T06:02:57.284Z,1.95
2019-01-10T06:05:26.785Z,1.90
2019-01-10T06:07:56.359Z,1.77
2019-01-10T06:10:27.984Z,1.70
2019-01-10T06:12:57.724Z,3.00
2019-01-10T06:15:27.371Z,2.00
2019-01-10T06:17:56.974Z,1.60
2019-01-10T06:20:26.474Z,1.40
2019-01-10T06:22:56.012Z,1.50
2019-01-10T06:25:25.857Z,1.45
2019-01-10T06:27:55.358Z,1.47
2019-01-10T06:30:27.535Z,1.40
2019-01-10T06:32:57.043Z,1.15
2019-01-10T06:35:26.574Z,1.70
2019-01-10T06:37:56.136Z,1.70
2019-01-10T06:40:25.882Z,2.08
2019-01-10T06:42:55.791Z,1.27
2019-01-10T06:45:25.344Z,1.55
2019-01-10T06:47:54.880Z,1.65
2019-01-10T06:50:24.374Z,1.82
2019-01-10T06:52:53.862Z,2.12
2019-01-10T06:55:23.369Z,1.50
2019-01-10T06:57:52.840Z,1.65
2019-01-10T07:00:24.430Z,2.95
2019-01-10T07:02:54.485Z,2.62
2019-01-10T07:05:23.974Z,1.87
2019-01-10T07:07:56.530Z,2.02
2019-01-10T07:10:29.117Z,1.40
2019-01-10T07:12:58.870Z,2.00
2019-01-10T07:15:28.375Z,1.70
2019-01-10T07:17:57.906Z,1.80
2019-01-10T07:20:27.392Z,2.40
2019-01-10T07:22:56.874Z,1.85
2019-01-10T07:25:26.390Z,1.92
2019-01-10T07:27:56.719Z,1.98
2019-01-10T07:30:35.695Z,2.30
2019-01-10T07:32:59.662Z,5.97
2019-01-10T07:35:29.243Z,3.10
2019-01-10T07:37:58.701Z,1.92
2019-01-10T07:40:28.213Z,2.35
2019-01-10T07:42:57.966Z,2.70
2019-01-10T07:45:27.644Z,1.80
2019-01-10T07:47:57.205Z,2.67
2019-01-10T07:50:29.696Z,1.90
2019-01-10T07:52:59.180Z,2.15
2019-01-10T07:55:29.078Z,2.22
2019-01-10T07:57:58.591Z,2.65
2019-01-10T08:00:28.067Z,1.75
2019-01-10T08:02:57.580Z,2.37
2019-01-10T08:05:27.026Z,2.35
2019-01-10T08:07:56.522Z,2.95
2019-01-10T08:10:26.059Z,2.08
2019-01-10T08:12:55.605Z,1.45
2019-01-10T08:15:25.204Z,2.05
2019-01-10T08:17:56.115Z,1.82
2019-01-10T08:20:25.698Z,1.30
2019-01-10T08:22:55.184Z,2.10
2019-01-10T08:25:24.698Z,1.50
2019-01-10T08:27:54.250Z,2.12
2019-01-10T08:30:24.931Z,1.35
2019-01-10T08:32:54.506Z,1.60
2019-01-10T08:35:24.802Z,1.60
2019-01-10T08:37:54.416Z,1.65
2019-01-10T08:40:23.976Z,1.35
2019-01-10T08:42:53.443Z,1.17
2019-01-10T08:45:23.435Z,1.10
2019-01-10T08:47:53.349Z,1.35
2019-01-10T08:50:25.045Z,1.42
2019-01-10T08:52:54.664Z,1.40
2019-01-10T08:55:24.431Z,1.60
2019-01-10T08:57:54.118Z,1.62
2019-01-10T09:00:24.200Z,1.45
2019-01-10T09:02:53.893Z,1.67
2019-01-10T09:05:23.397Z,3.90
2019-01-10T09:07:52.899Z,1.87
2019-01-10T09:10:25.470Z,2.05
2019-01-10T09:12:55.891Z,1.95
2019-01-10T09:15:33.868Z,1.85
2019-01-10T09:17:57.187Z,1.40
2019-01-10T09:20:26.668Z,1.98
2019-01-10T09:22:56.235Z,1.52
2019-01-10T09:25:25.802Z,1.60
2019-01-10T09:27:55.343Z,1.75
2019-01-10T09:30:24.887Z,1.50
2019-01-10T09:32:54.439Z,2.47
2019-01-10T09:35:23.955Z,1.80
2019-01-10T09:37:53.638Z,1.40
2019-01-10T09:40:24.119Z,1.55
2019-01-10T09:42:53.950Z,1.37
2019-01-10T09:45:24.549Z,2.62
2019-01-10T09:47:54.335Z,1.72
2019-01-10T09:50:24.206Z,1.67
2019-01-10T09:52:54.454Z,1.70
2019-01-10T09:55:24.084Z,2.50
2019-01-10T09:57:53.547Z,1.80
2019-01-10T10:00:26.915Z,1.60
2019-01-10T10:02:56.842Z,1.70
2019-01-10T10:05:26.419Z,1.40
2019-01-10T10:07:55.968Z,1.40
2019-01-10T10:10:25.762Z,1.70
2019-01-10T10:12:55.425Z,1.62
2019-01-10T10:15:25.014Z,1.15
2019-01-10T10:17:54.671Z,2.20
2019-01-10T10:20:25.289Z,1.57
2019-01-10T10:22:55.767Z,1.62
2019-01-10T10:25:26.067Z,1.80
2019-01-10T10:27:56.171Z,1.80
2019-01-10T10:30:25.643Z,1.70
2019-01-10T10:32:55.168Z,1.50
2019-01-10T10:35:25.175Z,2.08
2019-01-10T10:37:54.660Z,1.42
2019-01-10T10:40:24.237Z,2.25
2019-01-10T10:42:54.161Z,1.62
2019-01-10T10:45:43.444Z,1.55
2019-01-10T10:48:13.670Z,22.67
2019-01-10T10:50:43.471Z,2.40
2019-01-10T10:53:12.975Z,1.55
2019-01-10T10:55:42.479Z,1.90
2019-01-10T10:58:11.952Z,1.45
2019-01-10T11:00:41.488Z,1.82
2019-01-10T11:03:10.951Z,1.90
2019-01-10T11:05:40.434Z,1.50
2019-01-10T11:08:09.988Z,1.30
2019-01-10T11:10:39.498Z,2.05
2019-01-10T11:13:09.146Z,1.85
2019-01-10T11:15:38.666Z,1.40
2019-01-10T11:18:08.209Z,1.60
2019-01-10T11:20:37.698Z,1.52
2019-01-10T11:23:10.763Z,1.67
2019-01-10T11:25:38.488Z,1.80
2019-01-10T11:28:08.399Z,2.00
2019-01-10T11:30:38.066Z,2.37
2019-01-10T11:33:07.555Z,2.33
2019-01-10T11:35:37.051Z,1.60
2019-01-10T11:38:06.658Z,1.30
2019-01-10T11:40:36.152Z,1.85
2019-01-10T11:43:05.626Z,1.90
2019-01-10T11:45:35.108Z,2.15
2019-01-10T11:48:04.592Z,1.87
2019-01-10T11:50:34.098Z,2.50
2019-01-10T11:53:04.177Z,2.05
2019-01-10T11:55:33.646Z,3.40
2019-01-10T11:58:03.139Z,2.90
2019-01-10T12:00:32.914Z,3.20
2019-01-10T12:03:02.470Z,4.95
2019-01-10T12:05:32.055Z,2.62
2019-01-10T12:08:01.598Z,2.65
2019-01-10T12:10:31.090Z,2.70
2019-01-10T12:13:01.154Z,2.67
2019-01-10T12:15:31.650Z,3.20
2019-01-10T12:18:01.359Z,2.60
2019-01-10T12:20:31.232Z,3.30
2019-01-10T12:23:01.919Z,3.10
2019-01-10T12:25:31.408Z,1.80
2019-01-10T12:28:01.095Z,3.40
2019-01-10T12:30:30.796Z,4.00
2019-01-10T12:33:00.234Z,2.42
2019-01-10T12:35:29.806Z,2.80
2019-01-10T12:37:59.385Z,2.85
2019-01-10T12:40:28.881Z,3.00
2019-01-10T12:42:58.399Z,4.83
2019-01-10T12:45:28.378Z,2.90
2019-01-10T12:47:57.858Z,3.00
2019-01-10T12:50:29.872Z,2.47
2019-01-10T12:52:59.394Z,3.10
2019-01-10T12:55:28.958Z,3.35
2019-01-10T12:57:58.533Z,3.63
2019-01-10T13:00:28.096Z,2.90
2019-01-10T13:02:58.131Z,3.25
2019-01-10T13:05:27.639Z,3.20
2019-01-10T13:08:03.451Z,4.07
2019-01-10T13:10:28.559Z,3.00
2019-01-10T13:12:58.597Z,2.60
2019-01-10T13:15:28.107Z,2.77
2019-01-10T13:17:57.669Z,2.60
2019-01-10T13:20:27.161Z,3.62
2019-01-10T13:22:57.134Z,3.17
2019-01-10T13:25:26.632Z,3.33
2019-01-10T13:27:57.322Z,3.62
2019-01-10T13:30:26.993Z,3.03
2019-01-10T13:32:56.728Z,2.30
2019-01-10T13:35:26.831Z,3.23
2019-01-10T13:37:56.419Z,2.97
2019-01-10T13:40:26.076Z,2.77
2019-01-10T13:42:55.555Z,3.10
2019-01-10T13:45:25.530Z,3.50
2019-01-10T13:47:55.209Z,2.80
2019-01-10T13:50:28.075Z,3.23
2019-01-10T13:52:57.647Z,3.20
2019-01-10T13:55:27.165Z,3.40
2019-01-10T13:57:56.653Z,3.20
2019-01-10T14:00:35.242Z,4.10
2019-01-10T14:03:00.630Z,3.37
2019-01-10T14:05:31.053Z,4.13
2019-01-10T14:08:00.539Z,3.60
2019-01-10T14:10:30.395Z,4.70
2019-01-10T14:12:59.849Z,3.57
2019-01-10T14:15:31.463Z,4.45
2019-01-10T14:18:00.936Z,3.90
2019-01-10T14:20:30.440Z,4.20
2019-01-10T14:22:59.934Z,3.93
2019-01-10T14:25:29.561Z,7.00
2019-01-10T14:27:59.980Z,5.62
2019-01-10T14:30:34.151Z,5.90
2019-01-10T14:33:04.003Z,5.03
2019-01-10T14:35:33.509Z,4.90
2019-01-10T14:38:02.990Z,4.53
2019-01-10T14:40:32.482Z,5.72
2019-01-10T14:43:01.969Z,4.95
2019-01-10T14:45:32.059Z,4.28
2019-01-10T14:48:02.107Z,4.33
2019-01-10T14:50:32.042Z,4.10
2019-01-10T14:53:01.608Z,4.65
2019-01-10T14:55:31.192Z,4.30
2019-01-10T14:58:00.697Z,3.50
2019-01-10T15:00:30.245Z,4.05
2019-01-10T15:02:59.751Z,4.50
2019-01-10T15:05:34.442Z,4.53
2019-01-10T15:08:00.434Z,4.22
2019-01-10T15:10:29.913Z,3.72
2019-01-10T15:12:59.466Z,3.80
2019-01-10T15:15:29.162Z,4.55
2019-01-10T15:18:06.423Z,4.25
2019-01-10T15:20:36.021Z,4.42
2019-01-10T15:23:05.641Z,3.98
2019-01-10T15:25:35.144Z,4.00
2019-01-10T15:28:04.759Z,3.67
2019-01-10T15:30:34.245Z,4.67
2019-01-10T15:33:03.721Z,4.53
2019-01-10T15:35:33.836Z,4.60
2019-01-10T15:38:03.372Z,4.75
2019-01-10T15:40:34.151Z,4.78
2019-01-10T15:43:04.117Z,3.85
2019-01-10T15:45:33.634Z,4.80
2019-01-10T15:48:03.172Z,4.62
2019-01-10T15:50:32.683Z,5.17
2019-01-10T15:53:02.196Z,6.05
2019-01-10T15:55:31.854Z,6.40
2019-01-10T15:58:01.435Z,5.97
2019-01-10T16:00:30.950Z,6.20
2019-01-10T16:03:00.450Z,6.00
2019-01-10T16:05:30.063Z,5.65
2019-01-10T16:07:59.561Z,7.35
2019-01-10T16:10:29.130Z,6.10
2019-01-10T16:12:58.685Z,5.42
2019-01-10T16:15:28.177Z,4.50
2019-01-10T16:17:57.684Z,4.42
2019-01-10T16:20:27.837Z,5.03
2019-01-10T16:22:57.375Z,5.08
2019-01-10T16:25:26.980Z,5.10
2019-01-10T16:27:56.494Z,4.35
2019-01-10T16:30:28.582Z,5.25
2019-01-10T16:32:58.114Z,4.92
2019-01-10T16:35:28.803Z,4.55
2019-01-10T16:37:58.351Z,3.60
2019-01-10T16:40:29.543Z,3.37
2019-01-10T16:42:59.314Z,4.67
2019-01-10T16:45:29.568Z,3.70
2019-01-10T16:47:59.149Z,4.55
2019-01-10T16:50:28.722Z,6.30
2019-01-10T16:52:58.265Z,4.15
2019-01-10T16:55:27.748Z,3.90
2019-01-10T16:57:57.353Z,4.15
2019-01-10T17:00:30.449Z,4.05
2019-01-10T17:03:00.100Z,4.10
2019-01-10T17:05:29.607Z,4.00
2019-01-10T17:07:59.168Z,4.95
2019-01-10T17:10:28.749Z,4.75
2019-01-10T17:12:58.727Z,4.05
2019-01-10T17:15:28.278Z,3.95
2019-01-10T17:17:57.756Z,4.65
2019-01-10T17:20:28.295Z,4.60
2019-01-10T17:22:57.814Z,4.87
2019-01-10T17:25:27.345Z,4.30
2019-01-10T17:27:56.853Z,5.80
2019-01-10T17:30:30.177Z,4.80
2019-01-10T17:32:59.654Z,5.28
2019-01-10T17:35:32.640Z,5.78
2019-01-10T17:38:03.058Z,5.42
2019-01-10T17:40:32.953Z,5.45
2019-01-10T17:43:03.195Z,5.58
2019-01-10T17:45:33.983Z,5.60
2019-01-10T17:48:03.676Z,6.20
2019-01-10T17:50:33.185Z,6.03
2019-01-10T17:53:02.691Z,7.33
2019-01-10T17:55:32.160Z,5.97
2019-01-10T17:58:02.058Z,6.00
2019-01-10T18:00:32.505Z,7.10
2019-01-10T18:03:02.105Z,5.92
2019-01-10T18:05:31.596Z,5.90
2019-01-10T18:08:01.381Z,6.70
2019-01-10T18:10:31.059Z,6.50
2019-01-10T18:13:00.600Z,6.10
2019-01-10T18:15:31.505Z,6.35
2019-01-10T18:18:00.961Z,6.83
2019-01-10T18:20:36.078Z,6.75
2019-01-10T18:23:06.678Z,6.45
2019-01-10T18:25:36.152Z,7.20
2019-01-10T18:28:06.444Z,7.15
2019-01-10T18:30:36.206Z,7.47
2019-01-10T18:33:05.695Z,7.03
2019-01-10T18:35:35.877Z,6.60
2019-01-10T18:38:05.567Z,7.03
2019-01-10T18:40:35.140Z,7.40
2019-01-10T18:43:04.956Z,7.30
2019-01-10T18:45:34.486Z,6.95
2019-01-10T18:48:03.983Z,6.65
2019-01-10T18:50:33.551Z,7.05
2019-01-10T18:53:03.035Z,7.58
2019-01-10T18:55:32.544Z,6.95
2019-01-10T18:58:02.096Z,7.35
2019-01-10T19:00:32.122Z,6.85
2019-01-10T19:03:02.001Z,7.30
2019-01-10T19:05:31.653Z,6.42
2019-01-10T19:08:01.167Z,6.60
2019-01-10T19:10:30.668Z,7.30
2019-01-10T19:13:00.187Z,7.05
2019-01-10T19:15:29.759Z,7.67
2019-01-10T19:18:03.319Z,7.58
2019-01-10T19:20:30.533Z,7.90
2019-01-10T19:23:00.088Z,7.35
2019-01-10T19:25:29.591Z,6.70
2019-01-10T19:27:59.484Z,7.25
2019-01-10T19:30:31.018Z,6.53
2019-01-10T19:33:01.434Z,6.97
2019-01-10T19:35:31.305Z,5.80
2019-01-10T19:38:00.776Z,5.90
2019-01-10T19:40:30.265Z,6.25
2019-01-10T19:42:59.773Z,7.20
2019-01-10T19:45:29.348Z,6.62
2019-01-10T19:47:58.845Z,7.20
2019-01-10T19:50:28.539Z,6.92
2019-01-10T19:52:58.100Z,7.40
2019-01-10T19:55:27.822Z,7.40
2019-01-10T19:57:57.307Z,7.65
2019-01-10T20:00:36.813Z,8.30
2019-01-10T20:03:25.864Z,8.65
2019-01-10T20:05:55.433Z,8.10
2019-01-10T20:08:24.936Z,9.28
2019-01-10T20:11:01.052Z,9.43
2019-01-10T20:13:36.051Z,11.00
2019-01-10T20:16:06.569Z,9.90
2019-01-10T20:18:36.149Z,10.50
2019-01-10T20:21:07.231Z,10.50
2019-01-10T20:23:37.340Z,10.15
2019-01-10T20:26:06.870Z,10.00
2019-01-10T20:28:36.376Z,10.15
2019-01-10T20:31:06.304Z,11.35
2019-01-10T20:33:35.761Z,9.20
2019-01-10T20:36:05.319Z,10.82
2019-01-10T20:38:35.390Z,11.20
2019-01-10T20:41:04.996Z,13.13
2019-01-10T20:43:34.483Z,12.13
2019-01-10T20:46:04.129Z,13.20
2019-01-10T20:48:33.701Z,12.78
2019-01-10T20:51:03.676Z,12.80
2019-01-10T20:53:33.390Z,13.72
2019-01-10T20:56:02.895Z,13.18
2019-01-10T20:58:32.402Z,14.85
2019-01-10T21:01:01.979Z,14.70
2019-01-10T21:03:31.487Z,13.43
2019-01-10T21:06:00.965Z,13.80
2019-01-10T21:08:30.640Z,12.88
2019-01-10T21:11:00.185Z,13.50
2019-01-10T21:13:29.742Z,13.93
2019-01-10T21:16:00.335Z,13.75
2019-01-10T21:18:29.873Z,14.05
2019-01-10T21:20:59.472Z,12.75
2019-01-10T21:23:29.077Z,12.30
2019-01-10T21:25:58.587Z,15.23
2019-01-10T21:28:28.054Z,13.20
2019-01-10T21:30:57.576Z,12.98
2019-01-10T21:33:27.062Z,12.40
2019-01-10T21:35:56.576Z,12.00
2019-01-10T21:38:26.166Z,12.95
2019-01-10T21:40:55.756Z,13.05
2019-01-10T21:43:25.278Z,12.80
2019-01-10T21:45:54.812Z,12.90
2019-01-10T21:48:24.737Z,11.68
2019-01-10T21:50:57.900Z,12.23
2019-01-10T21:53:28.186Z,13.00
2019-01-10T21:55:58.148Z,12.37
2019-01-10T21:58:27.631Z,11.88
2019-01-10T22:00:57.211Z,11.93
2019-01-10T22:03:26.666Z,13.00
2019-01-10T22:05:56.198Z,12.78
2019-01-10T22:08:25.656Z,12.05
2019-01-10T22:10:55.132Z,12.65
2019-01-10T22:13:24.688Z,11.60
2019-01-10T22:15:54.410Z,12.20
2019-01-10T22:18:23.894Z,11.88
2019-01-10T22:20:53.382Z,12.37
2019-01-10T22:23:22.878Z,12.28
2019-01-10T22:25:52.462Z,13.35
2019-01-10T22:28:21.903Z,12.35
2019-01-10T22:30:51.420Z,12.95
2019-01-10T22:33:20.908Z,13.83
2019-01-10T22:35:50.395Z,12.50
2019-01-10T22:38:20.119Z,12.23
2019-01-10T22:40:49.610Z,12.40
2019-01-10T22:43:19.180Z,11.20
2019-01-10T22:45:48.690Z,12.70
2019-01-10T22:48:18.185Z,11.12
2019-01-10T22:50:48.124Z,11.85
2019-01-10T22:53:17.653Z,12.10
2019-01-10T22:55:47.156Z,11.43
2019-01-10T22:58:16.692Z,13.15
2019-01-10T23:01:00.910Z,12.60
2019-01-10T23:03:35.074Z,11.33
2019-01-10T23:06:05.136Z,10.82
2019-01-10T23:08:40.358Z,10.82
2019-01-10T23:11:14.590Z,11.10
2019-01-10T23:13:48.926Z,11.45
2019-01-10T23:16:21.284Z,11.18
2019-01-10T23:18:54.258Z,10.90
2019-01-10T23:21:22.243Z,11.35
2019-01-10T23:23:56.890Z,10.75
2019-01-10T23:26:26.372Z,10.30
2019-01-10T23:28:56.149Z,10.53
2019-01-10T23:31:25.644Z,11.28
2019-01-10T23:33:56.835Z,10.38
2019-01-10T23:36:26.646Z,10.60
2019-01-10T23:39:14.994Z,10.88
2019-01-10T23:41:44.502Z,10.25
2019-01-10T23:44:14.049Z,10.53
2019-01-10T23:46:43.578Z,10.82
2019-01-10T23:49:13.073Z,12.18
2019-01-10T23:51:42.561Z,10.63
2019-01-10T23:54:12.483Z,11.12
2019-01-10T23:56:42.105Z,9.83
2019-01-10T23:59:11.584Z,10.88
